createdAt,value
2019-01-16T00:01:59.205Z,4.43
2019-01-16T00:04:38.246Z,4.43
2019-01-16T00:07:33.793Z,5.40
2019-01-16T00:10:20.582Z,5.67
2019-01-16T00:13:08.128Z,4.73
2019-01-16T00:15:55.306Z,4.00
2019-01-16T00:18:34.225Z,5.07
2019-01-16T00:21:13.799Z,5.00
2019-01-16T00:24:00.201Z,5.00
2019-01-16T00:27:06.382Z,5.83
2019-01-16T00:29:51.036Z,4.90
2019-01-16T00:32:38.798Z,4.47
2019-01-16T00:35:24.516Z,5.40
2019-01-16T00:38:27.557Z,5.30
2019-01-16T00:41:15.529Z,4.73
2019-01-16T00:44:01.686Z,4.20
2019-01-16T00:46:47.838Z,5.10
2019-01-16T00:49:28.898Z,5.33
2019-01-16T00:52:14.986Z,4.47
2019-01-16T00:54:52.454Z,3.80
2019-01-16T00:57:34.630Z,4.93
2019-01-16T01:00:15.023Z,4.27
2019-01-16T01:03:01.794Z,4.47
2019-01-16T01:05:48.374Z,4.27
2019-01-16T01:08:32.476Z,4.40
2019-01-16T01:11:20.032Z,4.73
2019-01-16T01:13:59.292Z,4.40
2019-01-16T01:16:48.169Z,4.47
2019-01-16T01:19:30.010Z,5.73
2019-01-16T01:22:09.551Z,4.70
2019-01-16T01:24:55.928Z,4.27
2019-01-16T01:27:43.441Z,4.37
2019-01-16T01:30:29.816Z,4.33
2019-01-16T01:33:36.002Z,4.37
2019-01-16T01:36:31.405Z,4.00
2019-01-16T01:39:17.603Z,4.27
2019-01-16T01:42:04.384Z,3.87
2019-01-16T01:44:52.254Z,4.63
2019-01-16T01:47:45.870Z,5.27
2019-01-16T01:50:36.594Z,4.03
2019-01-16T01:53:22.156Z,3.30
2019-01-16T01:56:25.082Z,4.10
2019-01-16T01:59:09.534Z,4.33
2019-01-16T02:02:06.035Z,4.90
2019-01-16T02:04:59.167Z,5.17
2019-01-16T02:07:42.215Z,5.00
2019-01-16T02:10:32.752Z,4.63
2019-01-16T02:13:19.339Z,5.50
2019-01-16T02:16:13.094Z,5.23
2019-01-16T02:18:59.858Z,3.93
2019-01-16T02:21:52.263Z,5.17
2019-01-16T02:24:45.980Z,5.30
2019-01-16T02:27:33.157Z,5.00
2019-01-16T02:30:13.806Z,5.37
2019-01-16T02:33:00.251Z,4.87
2019-01-16T02:35:46.858Z,4.57
2019-01-16T02:38:26.961Z,6.67
2019-01-16T02:41:07.797Z,5.20
2019-01-16T02:44:05.582Z,5.27
2019-01-16T02:47:06.349Z,5.00
2019-01-16T02:49:57.100Z,5.13
2019-01-16T02:52:38.639Z,4.27
2019-01-16T02:55:25.358Z,5.07
2019-01-16T02:58:01.654Z,5.17
2019-01-16T03:00:56.153Z,5.67
2019-01-16T03:03:56.014Z,5.03
2019-01-16T03:06:34.834Z,4.67
2019-01-16T03:09:42.123Z,4.57
2019-01-16T03:12:28.461Z,4.97
2019-01-16T03:15:33.274Z,5.40
2019-01-16T03:18:14.827Z,5.30
2019-01-16T03:21:02.464Z,5.67
2019-01-16T03:24:02.115Z,6.60
2019-01-16T03:26:53.347Z,5.20
2019-01-16T03:29:59.422Z,6.10
2019-01-16T03:33:05.610Z,4.70
2019-01-16T03:35:56.860Z,4.83
2019-01-16T03:38:44.415Z,5.37
2019-01-16T03:41:30.538Z,4.93
2019-01-16T03:44:19.462Z,4.87
2019-01-16T03:47:06.226Z,6.23
2019-01-16T03:49:50.622Z,5.50
2019-01-16T03:52:43.494Z,6.30
2019-01-16T03:55:29.966Z,5.60
2019-01-16T03:58:26.852Z,5.30
2019-01-16T04:01:13.402Z,5.87
2019-01-16T04:04:05.614Z,5.73
2019-01-16T04:06:44.187Z,6.23
2019-01-16T04:09:40.860Z,7.00
2019-01-16T04:12:32.058Z,5.77
2019-01-16T04:15:23.322Z,5.83
2019-01-16T04:18:19.918Z,5.93
2019-01-16T04:20:56.466Z,5.77
2019-01-16T04:23:33.048Z,6.50
2019-01-16T04:26:19.658Z,6.37
2019-01-16T04:29:16.457Z,6.43
2019-01-16T04:32:02.893Z,7.10
2019-01-16T04:35:02.531Z,6.90
2019-01-16T04:37:44.569Z,5.70
2019-01-16T04:40:44.621Z,6.17
2019-01-16T04:43:32.173Z,5.60
2019-01-16T04:46:19.850Z,4.97
2019-01-16T04:49:08.119Z,5.90
2019-01-16T04:51:49.834Z,5.70
2019-01-16T04:54:36.807Z,5.67
2019-01-16T04:57:31.194Z,4.43
2019-01-16T05:00:09.770Z,5.40
2019-01-16T05:02:58.250Z,5.53
2019-01-16T05:05:52.279Z,4.73
2019-01-16T05:08:49.040Z,5.03
2019-01-16T05:11:48.821Z,5.10
2019-01-16T05:14:25.031Z,5.40
2019-01-16T05:17:17.584Z,4.60
2019-01-16T05:20:12.040Z,5.53
2019-01-16T05:22:58.656Z,5.00
2019-01-16T05:25:45.354Z,5.50
2019-01-16T05:28:41.756Z,4.70
2019-01-16T05:31:22.963Z,3.73
2019-01-16T05:34:13.338Z,4.37
2019-01-16T05:37:03.738Z,4.50
2019-01-16T05:39:51.693Z,4.53
2019-01-16T05:42:38.440Z,4.30
2019-01-16T05:45:38.402Z,4.53
2019-01-16T05:48:29.859Z,3.53
2019-01-16T05:51:24.684Z,4.53
2019-01-16T05:54:14.191Z,3.93
2019-01-16T05:57:00.615Z,4.77
2019-01-16T05:59:54.299Z,4.63
2019-01-16T06:02:54.050Z,5.13
2019-01-16T06:05:47.630Z,4.43
2019-01-16T06:08:29.928Z,3.90
2019-01-16T06:11:16.574Z,4.07
2019-01-16T06:14:05.179Z,4.27
2019-01-16T06:16:42.463Z,3.83
2019-01-16T06:19:23.976Z,4.90
2019-01-16T06:22:10.792Z,4.10
2019-01-16T06:25:04.495Z,4.00
2019-01-16T06:27:46.664Z,3.07
2019-01-16T06:30:52.638Z,5.07
2019-01-16T06:33:36.400Z,4.33
2019-01-16T06:36:24.169Z,4.00
2019-01-16T06:39:05.835Z,3.57
2019-01-16T06:42:05.634Z,4.30
2019-01-16T06:44:52.021Z,3.80
2019-01-16T06:47:42.766Z,3.30
2019-01-16T06:50:27.622Z,3.40
2019-01-16T06:53:03.384Z,3.40
2019-01-16T06:55:42.362Z,3.70
2019-01-16T06:58:38.620Z,2.87
2019-01-16T07:01:35.479Z,2.97
2019-01-16T07:04:32.970Z,3.27
2019-01-16T07:07:21.749Z,2.90
2019-01-16T07:10:08.012Z,3.67
2019-01-16T07:12:55.546Z,2.93
2019-01-16T07:15:42.132Z,3.13
2019-01-16T07:18:28.694Z,3.87
2019-01-16T07:21:25.806Z,3.50
2019-01-16T07:24:11.921Z,3.57
2019-01-16T07:26:58.319Z,4.63
2019-01-16T07:29:37.545Z,4.53
2019-01-16T07:32:27.199Z,3.87
2019-01-16T07:35:11.329Z,3.63
2019-01-16T07:37:49.630Z,3.80
2019-01-16T07:40:37.969Z,3.53
2019-01-16T07:43:14.423Z,3.97
2019-01-16T07:45:50.821Z,3.57
2019-01-16T07:48:37.269Z,3.50
2019-01-16T07:51:23.791Z,3.23
2019-01-16T07:54:10.378Z,4.20
2019-01-16T07:56:56.917Z,4.53
2019-01-16T07:59:53.654Z,3.93
2019-01-16T08:02:34.812Z,3.80
2019-01-16T08:05:14.326Z,4.53
2019-01-16T08:08:00.762Z,4.10
2019-01-16T08:10:50.228Z,3.90
2019-01-16T08:13:39.946Z,3.47
2019-01-16T08:16:26.612Z,3.93
2019-01-16T08:19:13.147Z,3.87
2019-01-16T08:22:03.925Z,4.50
2019-01-16T08:24:56.511Z,3.83
2019-01-16T08:27:43.240Z,3.47
2019-01-16T08:30:25.696Z,3.80
2019-01-16T08:33:15.422Z,4.00
2019-01-16T08:36:08.809Z,3.57
2019-01-16T08:39:01.062Z,4.37
2019-01-16T08:41:47.369Z,4.27
2019-01-16T08:44:53.446Z,4.23
2019-01-16T08:47:39.218Z,5.20
2019-01-16T08:50:32.644Z,4.80
2019-01-16T08:53:10.253Z,3.63
2019-01-16T08:55:58.384Z,4.00
2019-01-16T08:59:01.510Z,4.97
2019-01-16T09:01:52.326Z,5.07
2019-01-16T09:04:39.902Z,5.00
2019-01-16T09:07:26.341Z,4.90
2019-01-16T09:10:12.979Z,4.73
2019-01-16T09:13:15.959Z,5.43
2019-01-16T09:16:09.462Z,5.73
2019-01-16T09:19:12.640Z,5.10
2019-01-16T09:22:06.306Z,5.07
2019-01-16T09:24:52.827Z,4.63
2019-01-16T09:27:39.226Z,5.70
2019-01-16T09:30:27.328Z,5.60
2019-01-16T09:33:33.126Z,5.50
2019-01-16T09:36:25.855Z,4.73
2019-01-16T09:39:19.566Z,5.50
2019-01-16T09:42:09.965Z,5.20
2019-01-16T09:44:57.751Z,5.73
2019-01-16T09:47:51.753Z,4.97
2019-01-16T09:50:48.527Z,5.23
2019-01-16T09:53:51.436Z,5.70
2019-01-16T09:56:32.727Z,5.23
2019-01-16T09:59:14.194Z,4.70
2019-01-16T10:02:07.909Z,5.23
2019-01-16T10:04:54.030Z,5.23
2019-01-16T10:07:41.597Z,5.73
2019-01-16T10:10:35.632Z,4.90
2019-01-16T10:13:21.046Z,5.33
2019-01-16T10:16:08.626Z,4.83
2019-01-16T10:19:02.078Z,5.47
2019-01-16T10:21:58.988Z,4.33
2019-01-16T10:25:01.623Z,4.57
2019-01-16T10:27:41.257Z,4.53
2019-01-16T10:30:30.182Z,5.20
2019-01-16T10:33:17.782Z,5.10
2019-01-16T10:36:11.326Z,4.17
2019-01-16T10:38:53.818Z,4.47
2019-01-16T10:41:52.854Z,4.57
2019-01-16T10:44:33.140Z,5.13
2019-01-16T10:47:30.147Z,4.63
2019-01-16T10:50:30.407Z,5.00
2019-01-16T10:53:22.855Z,4.50
2019-01-16T10:56:13.559Z,4.77
2019-01-16T10:58:55.822Z,4.60
2019-01-16T11:01:39.939Z,4.37
2019-01-16T11:04:15.629Z,4.67
2019-01-16T11:07:02.195Z,5.03
2019-01-16T11:10:02.190Z,4.20
2019-01-16T11:12:52.865Z,5.17
2019-01-16T11:15:39.315Z,5.33
2019-01-16T11:18:26.985Z,5.17
2019-01-16T11:21:13.677Z,4.70
2019-01-16T11:24:00.300Z,4.73
2019-01-16T11:27:00.124Z,4.60
2019-01-16T11:29:46.370Z,3.37
2019-01-16T11:32:28.579Z,3.73
2019-01-16T11:35:31.750Z,4.57
2019-01-16T11:38:25.898Z,4.27
2019-01-16T11:41:12.103Z,3.77
2019-01-16T11:44:15.169Z,3.83
2019-01-16T11:46:55.505Z,4.50
2019-01-16T11:49:41.786Z,4.23
2019-01-16T11:52:38.597Z,4.10
2019-01-16T11:55:25.060Z,3.87
2019-01-16T11:58:31.090Z,3.60
2019-01-16T12:01:06.681Z,3.90
2019-01-16T12:03:54.549Z,4.00
2019-01-16T12:06:30.414Z,4.20
2019-01-16T12:09:13.503Z,3.87
2019-01-16T12:12:04.071Z,3.70
2019-01-16T12:15:03.992Z,3.60
2019-01-16T12:17:57.408Z,3.00
2019-01-16T12:20:54.260Z,2.83
2019-01-16T12:23:40.469Z,2.87
2019-01-16T12:26:26.808Z,3.00
2019-01-16T12:29:17.665Z,3.50
2019-01-16T12:31:58.026Z,3.33
2019-01-16T12:34:44.529Z,2.87
2019-01-16T12:37:35.185Z,3.20
2019-01-16T12:40:23.850Z,3.07
2019-01-16T12:43:05.889Z,2.57
2019-01-16T12:45:59.640Z,3.33
2019-01-16T12:48:42.793Z,3.17
2019-01-16T12:51:33.563Z,3.07
2019-01-16T12:54:10.205Z,3.00
2019-01-16T12:56:56.577Z,3.20
2019-01-16T12:59:53.341Z,2.10
2019-01-16T13:02:32.010Z,2.53
2019-01-16T13:05:25.905Z,3.20
2019-01-16T13:08:05.867Z,2.43
2019-01-16T13:11:08.711Z,2.33
2019-01-16T13:13:56.329Z,2.13
2019-01-16T13:16:43.914Z,2.33
2019-01-16T13:19:30.445Z,2.53
2019-01-16T13:22:11.012Z,2.23
2019-01-16T13:24:49.386Z,2.13
2019-01-16T13:27:35.901Z,2.07
2019-01-16T13:30:23.016Z,2.43
2019-01-16T13:33:20.006Z,2.27
2019-01-16T13:36:06.573Z,2.50
2019-01-16T13:38:42.358Z,3.00
2019-01-16T13:41:39.320Z,2.43
2019-01-16T13:44:27.009Z,1.70
2019-01-16T13:47:14.702Z,2.33
2019-01-16T13:50:01.244Z,2.30
2019-01-16T13:52:59.973Z,2.20
2019-01-16T13:55:48.985Z,2.43
2019-01-16T13:58:42.378Z,2.07
2019-01-16T14:01:18.406Z,2.10
2019-01-16T14:04:05.918Z,2.60
2019-01-16T14:07:05.726Z,1.93
2019-01-16T14:09:56.403Z,2.53
2019-01-16T14:12:53.127Z,2.80
2019-01-16T14:15:40.928Z,2.30
2019-01-16T14:18:37.650Z,3.00
2019-01-16T14:21:25.334Z,2.80
2019-01-16T14:24:06.008Z,2.83
2019-01-16T14:26:57.963Z,2.87
2019-01-16T14:29:45.638Z,2.80
2019-01-16T14:32:45.629Z,3.17
2019-01-16T14:35:32.396Z,2.60
2019-01-16T14:38:18.894Z,3.57
2019-01-16T14:40:56.963Z,3.40
2019-01-16T14:43:43.378Z,3.57
2019-01-16T14:46:30.973Z,3.60
2019-01-16T14:49:25.101Z,3.43
2019-01-16T14:52:00.624Z,2.97
2019-01-16T14:54:50.300Z,3.30
2019-01-16T14:57:48.686Z,3.10
2019-01-16T15:00:35.335Z,2.90
2019-01-16T15:03:26.690Z,3.37
2019-01-16T15:06:12.956Z,3.50
2019-01-16T15:09:12.912Z,3.40
2019-01-16T15:11:57.657Z,2.87
2019-01-16T15:14:44.138Z,3.60
2019-01-16T15:17:37.855Z,3.07
2019-01-16T15:20:25.107Z,3.43
2019-01-16T15:23:19.323Z,3.07
2019-01-16T15:26:05.711Z,3.13
2019-01-16T15:28:53.242Z,5.17
2019-01-16T15:31:49.152Z,4.07
2019-01-16T15:34:27.449Z,4.13
2019-01-16T15:37:13.871Z,4.57
2019-01-16T15:39:56.903Z,4.37
2019-01-16T15:42:47.666Z,3.20
2019-01-16T15:45:47.594Z,3.33
2019-01-16T15:48:47.532Z,3.83
2019-01-16T15:51:35.086Z,4.43
2019-01-16T15:54:23.867Z,3.90
2019-01-16T15:57:05.223Z,3.70
2019-01-16T15:59:41.942Z,4.13
2019-01-16T16:02:35.898Z,3.80
2019-01-16T16:05:39.373Z,4.50
2019-01-16T16:08:31.748Z,4.17
2019-01-16T16:11:25.789Z,3.93
2019-01-16T16:14:10.021Z,3.87
2019-01-16T16:17:15.980Z,3.17
2019-01-16T16:20:06.846Z,4.23
2019-01-16T16:22:57.097Z,4.30
2019-01-16T16:25:39.451Z,4.07
2019-01-16T16:28:30.045Z,4.37
2019-01-16T16:31:38.113Z,4.17
2019-01-16T16:34:28.741Z,3.17
2019-01-16T16:37:16.764Z,3.77
2019-01-16T16:40:01.555Z,3.30
2019-01-16T16:42:52.280Z,3.00
2019-01-16T16:45:39.492Z,3.87
2019-01-16T16:48:29.139Z,3.27
2019-01-16T16:51:19.821Z,3.60
2019-01-16T16:54:13.833Z,2.77
2019-01-16T16:57:10.245Z,3.13
2019-01-16T16:59:57.841Z,2.67
2019-01-16T17:02:33.189Z,3.37
2019-01-16T17:05:19.909Z,3.83
2019-01-16T17:08:07.747Z,4.77
2019-01-16T17:10:53.996Z,3.73
2019-01-16T17:13:49.004Z,3.13
2019-01-16T17:16:44.229Z,3.57
2019-01-16T17:19:31.316Z,3.43
2019-01-16T17:22:15.131Z,3.37
2019-01-16T17:24:51.943Z,2.50
2019-01-16T17:27:39.927Z,3.37
2019-01-16T17:30:38.423Z,3.07
2019-01-16T17:33:28.963Z,3.67
2019-01-16T17:36:15.458Z,3.00
2019-01-16T17:38:52.672Z,3.10
2019-01-16T17:41:32.990Z,2.70
2019-01-16T17:44:30.111Z,2.93
2019-01-16T17:47:32.957Z,2.93
2019-01-16T17:50:39.342Z,3.17
2019-01-16T17:53:26.012Z,2.53
2019-01-16T17:56:13.765Z,2.87
2019-01-16T17:59:07.591Z,3.03
2019-01-16T18:01:55.184Z,2.97
2019-01-16T18:04:41.602Z,3.73
2019-01-16T18:07:44.569Z,2.53
2019-01-16T18:10:22.300Z,3.20
2019-01-16T18:13:12.663Z,3.30
2019-01-16T18:16:12.334Z,3.43
2019-01-16T18:19:02.872Z,3.43
2019-01-16T18:21:49.370Z,3.13
2019-01-16T18:24:43.030Z,3.33
2019-01-16T18:27:22.273Z,3.33
2019-01-16T18:30:09.667Z,3.63
2019-01-16T18:33:00.237Z,3.43
2019-01-16T18:35:50.615Z,2.70
2019-01-16T18:38:47.127Z,2.87
2019-01-16T18:41:24.231Z,3.83
2019-01-16T18:44:21.042Z,3.13
2019-01-16T18:47:11.940Z,2.77
2019-01-16T18:49:58.290Z,2.90
2019-01-16T18:52:51.854Z,3.60
2019-01-16T18:55:31.456Z,3.07
2019-01-16T18:58:18.095Z,3.37
2019-01-16T19:00:59.011Z,3.53
2019-01-16T19:04:05.017Z,3.70
2019-01-16T19:07:01.279Z,3.47
2019-01-16T19:09:48.311Z,3.87
2019-01-16T19:12:35.981Z,3.47
2019-01-16T19:15:24.418Z,3.50
2019-01-16T19:18:00.600Z,3.97
2019-01-16T19:20:53.843Z,3.57
2019-01-16T19:23:34.591Z,3.27
2019-01-16T19:26:31.371Z,3.37
2019-01-16T19:29:31.120Z,3.53
2019-01-16T19:32:17.805Z,2.67
2019-01-16T19:35:04.595Z,2.83
2019-01-16T19:37:51.475Z,2.93
2019-01-16T19:40:37.931Z,3.33
2019-01-16T19:43:28.697Z,2.83
2019-01-16T19:46:15.356Z,3.03
2019-01-16T19:49:07.126Z,3.03
2019-01-16T19:51:53.729Z,2.97
2019-01-16T19:54:41.423Z,3.37
2019-01-16T19:57:31.859Z,3.20
2019-01-16T20:00:18.279Z,3.23
2019-01-16T20:03:04.817Z,3.40
2019-01-16T20:05:55.618Z,3.00
2019-01-16T20:08:41.958Z,3.63
2019-01-16T20:11:48.114Z,3.20
2019-01-16T20:14:36.315Z,2.70
2019-01-16T20:17:15.245Z,3.67
2019-01-16T20:20:06.606Z,3.53
2019-01-16T20:22:57.481Z,2.90
2019-01-16T20:25:54.278Z,2.77
2019-01-16T20:28:40.450Z,3.77
2019-01-16T20:31:28.036Z,2.37
2019-01-16T20:34:18.951Z,3.47
2019-01-16T20:37:09.438Z,2.87
2019-01-16T20:40:02.400Z,3.23
2019-01-16T20:43:02.204Z,3.20
2019-01-16T20:45:53.153Z,3.13
2019-01-16T20:48:44.064Z,2.60
2019-01-16T20:51:30.849Z,3.40
2019-01-16T20:54:24.663Z,3.37
2019-01-16T20:57:18.054Z,4.17
2019-01-16T20:59:56.444Z,3.23
2019-01-16T21:02:52.471Z,4.03
2019-01-16T21:05:46.009Z,3.40
2019-01-16T21:08:21.899Z,3.57
2019-01-16T21:11:00.139Z,2.90
2019-01-16T21:13:53.909Z,3.80
2019-01-16T21:16:47.523Z,3.63
2019-01-16T21:19:33.887Z,3.60
2019-01-16T21:22:15.313Z,3.20
2019-01-16T21:25:02.926Z,3.70
2019-01-16T21:28:02.378Z,2.80
2019-01-16T21:30:56.070Z,3.17
2019-01-16T21:33:52.549Z,3.90
2019-01-16T21:36:56.871Z,3.00
2019-01-16T21:39:56.529Z,3.67
2019-01-16T21:42:47.234Z,3.40
2019-01-16T21:45:29.747Z,2.97
2019-01-16T21:48:24.475Z,2.53
2019-01-16T21:51:13.629Z,3.60
2019-01-16T21:53:48.590Z,3.40
2019-01-16T21:56:26.874Z,3.90
2019-01-16T21:59:13.091Z,3.23
2019-01-16T22:02:00.378Z,4.60
2019-01-16T22:04:47.680Z,3.50
2019-01-16T22:07:34.421Z,3.57
2019-01-16T22:10:21.018Z,4.47
2019-01-16T22:13:11.884Z,3.27
2019-01-16T22:16:14.613Z,3.60
2019-01-16T22:19:00.905Z,3.10
2019-01-16T22:21:46.474Z,3.50
2019-01-16T22:24:47.407Z,3.77
2019-01-16T22:27:50.190Z,3.77
2019-01-16T22:30:37.167Z,4.27
2019-01-16T22:33:23.453Z,4.17
2019-01-16T22:36:10.774Z,4.20
2019-01-16T22:38:54.692Z,4.33
2019-01-16T22:41:51.732Z,4.20
2019-01-16T22:44:54.874Z,3.60
2019-01-16T22:47:44.107Z,4.17
2019-01-16T22:50:31.142Z,4.43
2019-01-16T22:53:27.947Z,4.47
2019-01-16T22:56:14.174Z,4.40
2019-01-16T22:59:04.919Z,4.57
2019-01-16T23:01:55.796Z,4.17
2019-01-16T23:04:39.336Z,3.33
2019-01-16T23:07:45.238Z,3.83
2019-01-16T23:10:28.616Z,5.03
2019-01-16T23:13:34.606Z,4.10
2019-01-16T23:16:20.790Z,4.00
2019-01-16T23:19:11.082Z,4.17
2019-01-16T23:22:04.574Z,4.07
2019-01-16T23:24:58.089Z,4.33
2019-01-16T23:27:58.028Z,4.77
2019-01-16T23:30:35.416Z,5.53
2019-01-16T23:33:29.133Z,4.50
2019-01-16T23:36:19.894Z,5.37
2019-01-16T23:39:07.518Z,5.00
2019-01-16T23:41:49.474Z,4.50
2019-01-16T23:44:40.034Z,4.63
2019-01-16T23:47:36.453Z,4.53
2019-01-16T23:50:23.606Z,4.47
2019-01-16T23:53:11.533Z,4.00
2019-01-16T23:56:11.385Z,3.57
2019-01-16T23:58:49.725Z,4.00
